Time;durP1;ratioP1;P1;durP2;ratioP2;P2;SDS_P1;SDS_P2;PMS_P1;PMS_P2;Temp;Humidity;BMP_temperature;BMP_pressure;BME280_temperature;BME280_humidity;BME280_pressure;Samples;Min_cycle;Max_cycle;Signal;HPM_P1;HPM_P2
2022/10/10 00:02:23;;;;;;;8.23;7.43;;;13.50;99.90;;;;;;5114234;28;20462;-56
2022/10/10 00:04:52;;;;;;;7.57;6.83;;;13.50;99.90;;;;;;5114436;28;20439;-56
2022/10/10 00:07:19;;;;;;;9.70;7.80;;;13.40;99.90;;;;;;5111995;28;20925;-56
2022/10/10 00:09:47;;;;;;;8.23;7.20;;;13.40;99.90;;;;;;5114289;28;20913;-56
2022/10/10 00:12:14;;;;;;;8.33;7.37;;;13.50;99.90;;;;;;5114092;28;20471;-56
2022/10/10 00:14:42;;;;;;;8.13;7.00;;;13.50;99.90;;;;;;5111986;28;20457;-56
2022/10/10 00:17:09;;;;;;;12.70;7.60;;;13.50;99.90;;;;;;5113649;28;20988;-56
2022/10/10 00:19:36;;;;;;;8.43;7.43;;;13.40;99.90;;;;;;5114103;28;20457;-56
2022/10/10 00:22:04;;;;;;;8.53;7.17;;;13.40;99.90;;;;;;5111289;28;20463;-56
2022/10/10 00:24:31;;;;;;;9.63;8.83;;;13.40;99.90;;;;;;5113827;28;20925;-56
2022/10/10 00:26:58;;;;;;;7.63;6.90;;;13.40;99.90;;;;;;5114089;28;20442;-56
2022/10/10 00:29:25;;;;;;;8.70;7.80;;;13.40;99.90;;;;;;5111159;28;20442;-56
2022/10/10 00:31:53;;;;;;;8.80;7.47;;;13.50;99.90;;;;;;5113597;28;20474;-56
2022/10/10 00:34:20;;;;;;;9.13;8.03;;;13.50;99.90;;;;;;5113660;28;20434;-56
2022/10/10 00:36:47;;;;;;;7.80;6.20;;;13.60;99.90;;;;;;5111575;28;20477;-56
2022/10/10 00:39:15;;;;;;;7.17;6.57;;;13.60;99.90;;;;;;5112759;28;20450;-56
2022/10/10 00:41:43;;;;;;;8.83;7.40;;;13.60;99.90;;;;;;5113059;28;21000;-56
2022/10/10 00:44:12;;;;;;;8.90;8.10;;;13.60;99.90;;;;;;5111694;28;20442;-56
2022/10/10 00:46:40;;;;;;;8.27;7.37;;;13.60;99.90;;;;;;5113426;28;21015;-56
2022/10/10 00:49:13;;;;;;;7.97;7.20;;;13.70;99.90;;;;;;5113055;28;20545;-57
2022/10/10 00:51:40;;;;;;;8.73;7.47;;;13.60;99.90;;;;;;5111441;28;20459;-56
2022/10/10 00:54:10;;;;;;;9.10;7.97;;;13.70;99.90;;;;;;5113692;28;20529;-56
2022/10/10 00:56:42;;;;;;;7.30;6.70;;;13.70;99.90;;;;;;5112882;28;20462;-56
2022/10/10 00:59:11;;;;;;;8.30;7.50;;;13.70;99.90;;;;;;5111312;28;20426;-56
2022/10/10 01:01:39;;;;;;;8.00;7.20;;;13.70;99.90;;;;;;5113292;28;20489;-57
2022/10/10 01:04:06;;;;;;;8.27;7.47;;;13.70;99.90;;;;;;5112949;28;20450;-56
2022/10/10 01:06:34;;;;;;;8.00;6.63;;;13.70;99.90;;;;;;5111354;28;20427;-56
2022/10/10 01:09:01;;;;;;;8.33;7.60;;;13.80;99.90;;;;;;5113673;28;20447;-56
2022/10/10 01:11:45;;;;;;;7.57;6.97;;;13.70;99.90;;;;;;5112839;28;20442;-56
2022/10/10 01:14:26;;;;;;;12.70;7.30;;;13.70;99.90;;;;;;5110734;28;20843;-56
2022/10/10 01:17:00;;;;;;;8.93;7.80;;;13.70;99.90;;;;;;5112867;28;20423;-56
2022/10/10 01:19:48;;;;;;;7.63;6.93;;;13.70;99.90;;;;;;5112580;28;20414;-56
2022/10/10 01:22:26;;;;;;;13.17;7.67;;;13.70;99.90;;;;;;5110692;28;20467;-56
2022/10/10 01:25:03;;;;;;;7.43;6.73;;;13.70;99.90;;;;;;5113372;28;20430;-56
2022/10/10 01:27:34;;;;;;;12.17;8.60;;;13.70;99.90;;;;;;5112934;28;20427;-56
2022/10/10 01:30:10;;;;;;;8.63;7.90;;;13.80;99.90;;;;;;5110454;28;21004;-56
2022/10/10 01:32:43;;;;;;;9.20;7.93;;;13.70;99.90;;;;;;5112426;28;20462;-56
2022/10/10 01:35:35;;;;;;;8.10;7.30;;;13.80;99.90;;;;;;5111557;28;20977;-56
2022/10/10 01:38:13;;;;;;;12.30;7.93;;;13.80;99.90;;;;;;5112035;28;20449;-56
2022/10/10 01:40:49;;;;;;;7.53;6.80;;;13.80;99.90;;;;;;5111532;28;20836;-56
2022/10/10 01:43:17;;;;;;;9.47;7.57;;;13.80;99.90;;;;;;5110350;28;20468;-56
2022/10/10 01:45:47;;;;;;;8.77;7.97;;;13.70;99.90;;;;;;5112871;28;20447;-56
2022/10/10 01:48:18;;;;;;;8.23;7.43;;;13.70;99.90;;;;;;5112094;28;20532;-56
2022/10/10 01:50:59;;;;;;;11.43;8.80;;;13.70;99.90;;;;;;5109322;28;20423;-56
2022/10/10 01:53:37;;;;;;;10.17;7.37;;;13.70;99.90;;;;;;5112181;28;20470;-56
2022/10/10 01:56:13;;;;;;;11.77;8.20;;;13.70;99.90;;;;;;5112278;28;20478;-56
2022/10/10 01:58:59;;;;;;;11.60;7.63;;;13.60;99.90;;;;;;5110143;28;20437;-56
2022/10/10 02:01:35;;;;;;;7.97;7.03;;;13.60;99.90;;;;;;5112265;28;20490;-56
2022/10/10 02:04:06;;;;;;;8.63;7.40;;;13.50;99.90;;;;;;5112495;28;20425;-56
2022/10/10 02:06:40;;;;;;;14.10;7.40;;;13.50;99.90;;;;;;5109875;28;20464;-56
2022/10/10 02:09:11;;;;;;;8.00;7.20;;;13.60;99.90;;;;;;5112027;28;20431;-56
2022/10/10 02:11:40;;;;;;;8.30;7.50;;;13.60;99.90;;;;;;5112250;28;20458;-56
2022/10/10 02:14:15;;;;;;;9.73;7.63;;;13.60;99.90;;;;;;5109783;28;20931;-56
2022/10/10 02:16:47;;;;;;;8.63;7.73;;;13.60;99.90;;;;;;5111126;28;20440;-56
2022/10/10 02:19:19;;;;;;;8.57;7.73;;;13.60;99.90;;;;;;5111048;28;20427;-56
2022/10/10 02:21:48;;;;;;;7.87;7.13;;;13.60;99.90;;;;;;5109298;28;20494;-56
2022/10/10 02:24:18;;;;;;;7.80;7.00;;;13.60;99.90;;;;;;5111981;28;20537;-56
2022/10/10 02:26:52;;;;;;;8.80;7.50;;;13.60;99.90;;;;;;5112368;28;20449;-57
2022/10/10 02:29:24;;;;;;;8.63;6.67;;;13.40;99.90;;;;;;5110135;28;21379;-57
2022/10/10 02:32:01;;;;;;;8.00;7.23;;;13.40;99.90;;;;;;5111651;28;20477;-56
2022/10/10 02:34:33;;;;;;;8.00;6.80;;;13.50;99.90;;;;;;5109716;28;20414;-56
2022/10/10 02:37:03;;;;;;;8.60;7.70;;;13.50;99.90;;;;;;5113163;28;20573;-56
2022/10/10 02:39:35;;;;;;;8.07;7.30;;;13.50;99.90;;;;;;5112740;28;20936;-56
2022/10/10 02:42:03;;;;;;;8.80;7.40;;;13.60;99.90;;;;;;5110645;28;20497;-56
2022/10/10 02:44:32;;;;;;;8.43;7.63;;;13.60;99.90;;;;;;5112646;28;20442;-56
2022/10/10 02:47:00;;;;;;;8.57;7.67;;;13.60;99.90;;;;;;5112749;28;20446;-56
2022/10/10 02:49:29;;;;;;;8.07;7.20;;;13.50;99.90;;;;;;5110239;28;20458;-56
2022/10/10 02:51:57;;;;;;;8.23;6.87;;;13.40;99.90;;;;;;5111434;28;20446;-56
2022/10/10 02:54:24;;;;;;;8.80;7.70;;;13.20;99.90;;;;;;5111228;28;20451;-56
2022/10/10 02:56:51;;;;;;;13.13;8.77;;;13.20;99.90;;;;;;5108642;28;20704;-56
2022/10/10 02:59:18;;;;;;;9.33;7.93;;;13.10;99.90;;;;;;5111474;28;20449;-56
2022/10/10 03:01:46;;;;;;;7.83;7.13;;;13.00;99.90;;;;;;5111591;28;20858;-56
2022/10/10 03:04:14;;;;;;;7.60;6.80;;;13.10;99.90;;;;;;5113007;28;20541;-56
2022/10/10 03:06:42;;;;;;;9.60;7.33;;;13.20;99.90;;;;;;5115676;28;20459;-56
2022/10/10 03:09:09;;;;;;;8.77;7.90;;;13.10;99.90;;;;;;5115352;28;20442;-56
2022/10/10 03:11:36;;;;;;;9.80;7.90;;;13.20;99.90;;;;;;5113132;28;20496;-56
2022/10/10 03:14:03;;;;;;;9.60;7.17;;;13.30;99.90;;;;;;5115456;28;20442;-56
2022/10/10 03:16:30;;;;;;;7.93;7.20;;;13.30;99.90;;;;;;5115272;28;20450;-56
2022/10/10 03:18:57;;;;;;;7.80;7.10;;;13.20;99.90;;;;;;5112969;28;20806;-56
2022/10/10 03:21:26;;;;;;;13.93;8.03;;;13.20;99.90;;;;;;5114950;28;20835;-56
2022/10/10 03:23:53;;;;;;;7.87;7.17;;;13.20;99.90;;;;;;5115173;28;20454;-56
2022/10/10 03:26:20;;;;;;;15.50;8.80;;;13.20;99.90;;;;;;5113190;28;20537;-56
2022/10/10 03:28:47;;;;;;;10.67;7.47;;;13.20;99.90;;;;;;5115297;28;20450;-56
2022/10/10 03:31:14;;;;;;;10.87;7.70;;;13.20;99.90;;;;;;5116040;28;20454;-56
2022/10/10 03:33:42;;;;;;;8.67;7.87;;;13.20;99.90;;;;;;5113218;28;20442;-56
2022/10/10 03:36:09;;;;;;;8.00;6.70;;;13.20;99.90;;;;;;5116012;28;20453;-56
2022/10/10 03:38:39;;;;;;;7.47;6.77;;;13.20;99.90;;;;;;5115725;28;20431;-56
2022/10/10 03:41:06;;;;;;;8.40;7.30;;;13.10;99.90;;;;;;5114110;28;20565;-56
2022/10/10 03:43:34;;;;;;;8.37;7.57;;;13.20;99.90;;;;;;5115459;28;20471;-55
2022/10/10 03:46:01;;;;;;;7.90;7.10;;;13.10;99.90;;;;;;5114824;28;20469;-56
2022/10/10 03:48:28;;;;;;;7.77;6.97;;;13.20;99.90;;;;;;5112719;28;20450;-56
2022/10/10 03:50:55;;;;;;;10.67;6.43;;;13.20;99.90;;;;;;5113906;28;20469;-56
2022/10/10 03:53:22;;;;;;;8.87;7.50;;;13.20;99.90;;;;;;5115301;28;20553;-56
2022/10/10 03:55:53;;;;;;;7.30;6.70;;;13.20;99.90;;;;;;5113041;28;20486;-56
2022/10/10 03:58:20;;;;;;;11.97;7.73;;;13.20;99.90;;;;;;5114704;28;20450;-55
2022/10/10 04:00:54;;;;;;;9.07;7.83;;;13.30;99.90;;;;;;5115112;28;20465;-55
2022/10/10 04:03:21;;;;;;;9.00;8.20;;;13.30;99.90;;;;;;5113295;28;20473;-55
2022/10/10 04:05:48;;;;;;;9.60;8.43;;;13.20;99.90;;;;;;5114989;28;20902;-55
2022/10/10 04:08:16;;;;;;;8.77;7.60;;;13.30;99.90;;;;;;5113959;28;20500;-56
2022/10/10 04:10:43;;;;;;;10.20;7.70;;;13.30;99.90;;;;;;5112859;28;20956;-56
2022/10/10 04:13:12;;;;;;;9.07;8.17;;;13.30;99.90;;;;;;5114547;28;20459;-56
2022/10/10 04:15:39;;;;;;;11.83;8.27;;;13.20;99.90;;;;;;5114506;28;20538;-56
2022/10/10 04:18:07;;;;;;;9.30;7.40;;;13.20;99.90;;;;;;5112727;28;20478;-55
2022/10/10 04:20:34;;;;;;;11.30;7.37;;;13.20;99.90;;;;;;5115066;28;20442;-55
2022/10/10 04:23:01;;;;;;;7.43;6.77;;;13.20;99.90;;;;;;5115067;28;20501;-56
2022/10/10 04:25:28;;;;;;;8.07;7.13;;;13.10;99.90;;;;;;5112899;28;20454;-55
2022/10/10 04:27:56;;;;;;;13.20;8.67;;;13.00;99.90;;;;;;5114485;28;20956;-56
2022/10/10 04:30:24;;;;;;;9.60;7.57;;;13.00;99.90;;;;;;5114994;28;20872;-55
2022/10/10 04:32:52;;;;;;;10.13;8.03;;;13.10;99.90;;;;;;5112571;28;20985;-56
2022/10/10 04:35:19;;;;;;;8.07;7.27;;;13.10;99.90;;;;;;5114288;28;20537;-55
2022/10/10 04:37:46;;;;;;;8.50;7.23;;;13.20;99.90;;;;;;5114706;28;20701;-55
2022/10/10 04:40:13;;;;;;;8.53;7.70;;;13.10;99.90;;;;;;5113210;28;20450;-55
2022/10/10 04:42:41;;;;;;;9.63;6.90;;;13.10;99.90;;;;;;5113691;28;20976;-56
2022/10/10 04:45:09;;;;;;;7.90;7.03;;;13.10;99.90;;;;;;5114279;28;20442;-56
2022/10/10 04:47:40;;;;;;;9.60;7.50;;;13.00;99.90;;;;;;5113415;28;20537;-55
2022/10/10 04:50:08;;;;;;;9.20;7.50;;;13.00;99.90;;;;;;5114493;28;20427;-55
2022/10/10 04:52:35;;;;;;;8.50;7.10;;;13.00;99.90;;;;;;5114124;28;20466;-56
2022/10/10 04:55:03;;;;;;;8.37;7.57;;;13.00;99.90;;;;;;5112455;28;20517;-55
2022/10/10 04:57:30;;;;;;;10.23;7.87;;;13.00;99.90;;;;;;5112989;28;20829;-55
2022/10/10 04:59:57;;;;;;;8.33;7.50;;;13.00;99.90;;;;;;5113137;28;20921;-55
2022/10/10 05:02:24;;;;;;;9.77;7.10;;;13.00;99.90;;;;;;5112180;28;20858;-56
2022/10/10 05:04:53;;;;;;;7.83;7.13;;;13.00;99.90;;;;;;5113106;28;20488;-55
2022/10/10 05:07:20;;;;;;;7.73;6.70;;;13.00;99.90;;;;;;5113747;28;20786;-56
2022/10/10 05:09:47;;;;;;;12.70;7.30;;;13.00;99.90;;;;;;5112422;28;20453;-55
2022/10/10 05:12:14;;;;;;;12.53;8.43;;;13.10;99.90;;;;;;5112742;28;20495;-55
2022/10/10 05:14:42;;;;;;;8.53;6.77;;;13.00;99.90;;;;;;5113890;28;20533;-55
2022/10/10 05:17:09;;;;;;;12.33;8.40;;;12.90;99.90;;;;;;5112477;28;20457;-55
2022/10/10 05:19:36;;;;;;;9.93;8.63;;;13.00;99.90;;;;;;5111463;28;20451;-56
2022/10/10 05:22:05;;;;;;;12.03;7.97;;;13.00;99.90;;;;;;5112395;28;20483;-55
2022/10/10 05:24:34;;;;;;;11.60;8.07;;;12.90;99.90;;;;;;5112300;28;20481;-55
2022/10/10 05:27:01;;;;;;;8.00;7.30;;;12.90;99.90;;;;;;5111886;28;20438;-55
2022/10/10 05:29:29;;;;;;;12.63;8.00;;;12.90;99.90;;;;;;5112481;28;20511;-55
2022/10/10 05:31:56;;;;;;;8.33;7.53;;;12.90;99.90;;;;;;5111742;28;20502;-55
2022/10/10 05:34:23;;;;;;;10.13;9.13;;;13.00;99.90;;;;;;5111553;28;20538;-55
2022/10/10 05:36:50;;;;;;;9.43;8.50;;;12.90;99.90;;;;;;5112252;28;20481;-55
2022/10/10 05:39:19;;;;;;;9.13;8.23;;;12.80;99.90;;;;;;5112167;28;20446;-56
2022/10/10 05:41:46;;;;;;;13.27;8.73;;;12.90;99.90;;;;;;5111145;28;20483;-56
2022/10/10 05:44:13;;;;;;;8.57;7.67;;;13.00;99.90;;;;;;5112028;28;21000;-55
2022/10/10 05:46:40;;;;;;;8.33;7.60;;;13.00;99.90;;;;;;5111933;28;20486;-56
2022/10/10 05:49:08;;;;;;;9.33;8.30;;;13.00;99.90;;;;;;5109930;28;20447;-55
2022/10/10 05:51:35;;;;;;;11.30;7.73;;;13.00;99.90;;;;;;5111996;28;20515;-55
2022/10/10 05:54:03;;;;;;;10.63;7.70;;;13.00;99.90;;;;;;5111550;28;20971;-56
2022/10/10 05:56:32;;;;;;;10.77;8.10;;;12.90;99.90;;;;;;5110144;28;20798;-56
2022/10/10 05:58:59;;;;;;;8.00;6.93;;;12.90;99.90;;;;;;5111223;28;20521;-56
2022/10/10 06:01:27;;;;;;;10.23;8.30;;;13.00;99.90;;;;;;5112037;28;20870;-57
2022/10/10 06:03:54;;;;;;;11.70;7.60;;;13.00;99.90;;;;;;5110010;28;20443;-56
2022/10/10 06:06:22;;;;;;;9.43;8.37;;;13.10;99.90;;;;;;5111887;28;20478;-56
2022/10/10 06:08:50;;;;;;;9.10;6.60;;;13.10;99.90;;;;;;5112312;28;20478;-56
2022/10/10 06:11:19;;;;;;;13.43;7.37;;;13.10;99.90;;;;;;5110310;28;20451;-55
2022/10/10 06:13:51;;;;;;;8.93;7.90;;;13.10;99.90;;;;;;5111556;28;20495;-56
2022/10/10 06:16:18;;;;;;;11.83;9.10;;;13.20;99.90;;;;;;5111624;28;20803;-55
2022/10/10 06:18:45;;;;;;;9.60;7.50;;;13.30;99.90;;;;;;5110475;28;20542;-56
2022/10/10 06:21:13;;;;;;;12.13;8.13;;;13.30;99.90;;;;;;5111580;28;20489;-56
2022/10/10 06:23:41;;;;;;;11.60;8.77;;;13.40;99.90;;;;;;5111464;28;20442;-56
2022/10/10 06:26:08;;;;;;;9.33;8.23;;;13.40;99.90;;;;;;5109743;28;20529;-55
2022/10/10 06:28:35;;;;;;;8.50;7.70;;;13.40;99.90;;;;;;5111556;28;20895;-55
2022/10/10 06:31:07;;;;;;;9.10;8.20;;;13.40;99.90;;;;;;5111264;28;21022;-55
2022/10/10 06:33:36;;;;;;;9.77;7.93;;;13.50;99.90;;;;;;5109639;28;20465;-55
2022/10/10 06:36:05;;;;;;;9.40;8.40;;;13.50;99.90;;;;;;5111413;28;20521;-55
2022/10/10 06:38:35;;;;;;;10.20;9.17;;;13.60;99.90;;;;;;5114762;28;20462;-56
2022/10/10 06:41:03;;;;;;;15.97;8.20;;;13.70;99.90;;;;;;5115213;28;20399;-55
2022/10/10 06:43:31;;;;;;;11.87;7.47;;;13.70;99.90;;;;;;5116108;28;20547;-55
2022/10/10 06:45:59;;;;;;;12.13;8.33;;;13.60;99.90;;;;;;5114662;28;20524;-55
2022/10/10 06:48:28;;;;;;;13.10;8.30;;;13.70;99.90;;;;;;5114437;28;20930;-55
2022/10/10 06:50:57;;;;;;;8.00;7.20;;;13.70;99.90;;;;;;5115416;28;20484;-55
2022/10/10 06:53:25;;;;;;;8.17;7.40;;;13.70;99.90;;;;;;5114483;28;20549;-55
2022/10/10 06:55:54;;;;;;;13.87;7.60;;;13.70;99.90;;;;;;5114537;27;21069;-56
2022/10/10 06:58:22;;;;;;;8.03;7.23;;;13.80;99.90;;;;;;5114826;28;20457;-55
2022/10/10 07:00:50;;;;;;;8.50;7.60;;;13.80;99.90;;;;;;5114337;28;20481;-55
2022/10/10 07:03:18;;;;;;;9.13;8.23;;;13.80;99.90;;;;;;5114683;28;21032;-55
2022/10/10 07:05:50;;;;;;;10.47;7.90;;;13.90;99.90;;;;;;5115117;28;20450;-55
2022/10/10 07:08:17;;;;;;;11.27;8.13;;;13.90;99.90;;;;;;5113372;28;20427;-55
2022/10/10 07:10:44;;;;;;;9.33;8.43;;;14.00;99.90;;;;;;5114759;28;20454;-55
2022/10/10 07:13:11;;;;;;;8.80;7.80;;;14.10;99.90;;;;;;5114835;28;20466;-55
2022/10/10 07:15:42;;;;;;;10.73;8.83;;;14.10;99.90;;;;;;5113477;28;20449;-55
2022/10/10 07:18:10;;;;;;;8.83;7.97;;;14.10;99.90;;;;;;5114764;28;21018;-55
2022/10/10 07:20:40;;;;;;;9.50;8.60;;;14.10;99.90;;;;;;5114301;28;20958;-55
2022/10/10 07:23:08;;;;;;;9.60;8.17;;;14.10;99.90;;;;;;5111826;28;20893;-55
2022/10/10 07:25:38;;;;;;;12.70;8.13;;;14.10;99.90;;;;;;5115655;28;20446;-55
2022/10/10 07:28:06;;;;;;;9.57;8.70;;;14.20;99.90;;;;;;5116134;28;20787;-55
2022/10/10 07:30:33;;;;;;;12.43;8.67;;;14.40;99.90;;;;;;5114064;28;20458;-55
2022/10/10 07:33:00;;;;;;;13.27;8.90;;;14.50;99.90;;;;;;5115771;28;20519;-56
2022/10/10 07:35:28;;;;;;;13.87;8.97;;;14.50;99.90;;;;;;5115278;28;20960;-55
2022/10/10 07:37:55;;;;;;;10.83;8.40;;;14.60;99.90;;;;;;5114048;28;20929;-55
2022/10/10 07:40:25;;;;;;;12.70;8.50;;;14.70;99.90;;;;;;5116064;28;20443;-55
2022/10/10 07:42:52;;;;;;;8.73;7.40;;;14.80;99.90;;;;;;5114722;28;20482;-55
2022/10/10 07:45:19;;;;;;;10.20;8.43;;;14.70;99.90;;;;;;5115332;28;20496;-56
2022/10/10 07:47:46;;;;;;;9.37;8.20;;;14.80;99.90;;;;;;5115200;28;20572;-56
2022/10/10 07:50:14;;;;;;;9.43;8.00;;;14.90;99.90;;;;;;5113836;28;20462;-56
2022/10/10 07:52:41;;;;;;;10.93;7.53;;;14.90;99.90;;;;;;5113835;28;20470;-56
2022/10/10 07:55:10;;;;;;;10.40;8.40;;;15.00;99.90;;;;;;5113783;28;20479;-56
2022/10/10 07:57:38;;;;;;;15.87;7.87;;;15.10;99.90;;;;;;5114227;28;20470;-56
2022/10/10 08:00:08;;;;;;;12.93;8.37;;;15.10;99.90;;;;;;5113835;28;20493;-56
2022/10/10 08:02:35;;;;;;;8.50;7.63;;;15.20;99.90;;;;;;5114362;28;20492;-56
2022/10/10 08:05:02;;;;;;;10.90;7.60;;;15.30;99.90;;;;;;5113704;28;20458;-56
2022/10/10 08:07:30;;;;;;;10.93;8.50;;;15.30;99.90;;;;;;5114066;28;20525;-56
2022/10/10 08:09:57;;;;;;;8.80;8.10;;;15.40;99.90;;;;;;5113916;28;20446;-56
2022/10/10 08:12:24;;;;;;;12.47;8.50;;;15.50;99.90;;;;;;5114429;28;20466;-56
2022/10/10 08:14:53;;;;;;;11.73;7.67;;;15.50;99.90;;;;;;5113605;28;20611;-56
2022/10/10 08:17:20;;;;;;;10.37;7.70;;;15.70;99.90;;;;;;5113250;28;20442;-56
2022/10/10 08:19:47;;;;;;;10.93;8.60;;;15.80;99.90;;;;;;5113193;28;20541;-56
2022/10/10 08:22:14;;;;;;;9.40;8.27;;;15.90;99.90;;;;;;5113878;28;20490;-56
2022/10/10 08:24:41;;;;;;;12.00;8.10;;;15.90;99.90;;;;;;5113249;28;20450;-56
2022/10/10 08:27:08;;;;;;;16.30;9.20;;;16.00;99.90;;;;;;5113431;28;20446;-56
2022/10/10 08:29:36;;;;;;;10.80;8.63;;;16.00;99.90;;;;;;5113562;28;20829;-56
2022/10/10 08:32:04;;;;;;;11.80;7.80;;;16.00;99.90;;;;;;5112666;28;20497;-56
2022/10/10 08:34:31;;;;;;;17.00;10.00;;;16.00;99.90;;;;;;5113666;28;20447;-57
2022/10/10 08:36:59;;;;;;;11.00;7.20;;;16.10;99.90;;;;;;5113501;28;20431;-56
2022/10/10 08:39:26;;;;;;;7.37;6.60;;;16.30;99.90;;;;;;5111770;28;20457;-56
2022/10/10 08:41:56;;;;;;;26.20;7.70;;;16.50;99.90;;;;;;5113501;28;20463;-57
2022/10/10 08:44:28;;;;;;;12.90;6.30;;;16.70;99.90;;;;;;5113303;28;20478;-56
2022/10/10 08:46:58;;;;;;;7.73;6.47;;;16.90;99.90;;;;;;5112318;28;20467;-58
2022/10/10 08:49:33;;;;;;;6.47;5.87;;;16.80;99.90;;;;;;5113056;28;21011;-56
2022/10/10 08:52:05;;;;;;;8.73;7.43;;;16.90;99.90;;;;;;5113863;28;20929;-57
2022/10/10 08:54:34;;;;;;;9.57;5.70;;;17.00;99.90;;;;;;5114361;28;20438;-56
2022/10/10 08:57:06;;;;;;;10.97;5.60;;;17.20;99.90;;;;;;5111419;28;20668;-56
2022/10/10 08:59:38;;;;;;;6.90;4.70;;;17.50;99.90;;;;;;5112655;28;20435;-56
2022/10/10 09:02:29;;;;;;;5.50;4.10;;;17.70;99.90;;;;;;5112853;28;20995;-56
2022/10/10 09:04:58;;;;;;;5.70;4.57;;;17.70;99.90;;;;;;5111261;28;20434;-56
2022/10/10 09:07:38;;;;;;;6.43;4.00;;;17.80;99.90;;;;;;5112719;27;20482;-56
2022/10/10 09:10:15;;;;;;;7.20;4.30;;;17.90;99.90;;;;;;5113543;28;20512;-56
2022/10/10 09:12:53;;;;;;;5.00;4.07;;;18.30;99.90;;;;;;5113463;28;20510;-56
2022/10/10 09:15:25;;;;;;;6.70;4.77;;;18.40;99.90;;;;;;5113855;28;20433;-56
2022/10/10 09:18:02;;;;;;;6.70;3.93;;;18.50;99.90;;;;;;5113751;28;20437;-57
2022/10/10 09:20:43;;;;;;;5.30;3.90;;;18.50;99.90;;;;;;5113181;28;20427;-56
2022/10/10 09:23:21;;;;;;;4.80;3.90;;;18.30;99.90;;;;;;5113727;28;20518;-57
2022/10/10 09:25:54;;;;;;;4.20;3.80;;;18.50;99.90;;;;;;5113732;28;20917;-56
2022/10/10 09:28:36;;;;;;;7.10;3.60;;;18.70;99.90;;;;;;5113426;28;20779;-56
2022/10/10 09:31:05;;;;;;;4.80;4.40;;;18.80;99.90;;;;;;5113488;28;20456;-55
2022/10/10 09:33:38;;;;;;;6.10;3.63;;;18.80;99.90;;;;;;5113107;28;20465;-57
2022/10/10 09:36:13;;;;;;;4.80;4.40;;;18.90;99.90;;;;;;5112908;28;20504;-56
2022/10/10 09:38:45;;;;;;;4.70;3.73;;;19.00;99.90;;;;;;5112550;28;20455;-56
2022/10/10 09:41:17;;;;;;;7.10;4.90;;;19.20;99.90;;;;;;5113421;28;20905;-56
2022/10/10 09:43:44;;;;;;;6.83;4.03;;;19.00;99.90;;;;;;5113244;28;20557;-56
2022/10/10 09:46:12;;;;;;;8.23;4.20;;;19.30;99.90;;;;;;5113406;28;20520;-56
2022/10/10 09:48:40;;;;;;;4.93;4.43;;;19.50;99.90;;;;;;5113086;28;20450;-56
2022/10/10 09:51:14;;;;;;;8.43;4.30;;;19.50;99.90;;;;;;5112802;28;20450;-56
2022/10/10 09:53:41;;;;;;;6.17;4.00;;;19.60;99.90;;;;;;5113258;28;20518;-56
2022/10/10 09:56:16;;;;;;;10.00;4.27;;;19.70;99.90;;;;;;5112863;28;20832;-56
2022/10/10 09:58:48;;;;;;;5.33;4.80;;;19.80;99.90;;;;;;5113008;27;20514;-57
2022/10/10 10:01:18;;;;;;;5.97;4.60;;;19.90;99.90;;;;;;5112505;28;20462;-56
2022/10/10 10:04:13;;;;;;;12.03;4.50;;;19.90;99.90;;;;;;5112954;28;20588;-56
2022/10/10 10:06:45;;;;;;;6.23;4.27;;;19.90;99.90;;;;;;5112875;28;20445;-57
2022/10/10 10:09:16;;;;;;;4.97;4.47;;;19.90;99.90;;;;;;5113039;28;20499;-56
2022/10/10 10:11:45;;;;;;;8.23;4.57;;;19.80;99.90;;;;;;5112179;28;20470;-57
2022/10/10 10:14:24;;;;;;;6.23;3.87;;;19.80;99.90;;;;;;5111699;28;20453;-56
2022/10/10 10:16:52;;;;;;;5.50;4.83;;;19.70;99.90;;;;;;5112342;28;20439;-56
2022/10/10 10:19:34;;;;;;;5.37;4.07;;;19.90;99.90;;;;;;5112768;28;20449;-56
2022/10/10 10:22:03;;;;;;;4.57;3.87;;;20.00;99.90;;;;;;5111327;28;20545;-56
2022/10/10 10:24:35;;;;;;;3.53;3.23;;;20.00;99.90;;;;;;5112495;28;20835;-56
2022/10/10 10:27:18;;;;;;;4.07;3.67;;;20.30;99.90;;;;;;5112684;28;20530;-56
2022/10/10 10:29:48;;;;;;;9.33;3.67;;;20.30;99.90;;;;;;5111942;28;20552;-57
2022/10/10 10:32:22;;;;;;;4.50;3.17;;;20.40;99.90;;;;;;5112154;28;20466;-56
2022/10/10 10:35:07;;;;;;;5.90;3.43;;;20.60;99.90;;;;;;5112525;28;20423;-56
2022/10/10 10:37:47;;;;;;;3.50;3.00;;;20.60;99.90;;;;;;5111106;28;20476;-56
2022/10/10 10:40:29;;;;;;;5.37;3.50;;;20.80;99.90;;;;;;5112257;28;20423;-56
2022/10/10 10:43:38;;;;;;;5.97;3.43;;;20.70;99.90;;;;;;5111124;28;20463;-56
2022/10/10 10:46:14;;;;;;;5.50;3.40;;;20.60;99.90;;;;;;5101385;28;20447;-57
2022/10/10 10:48:47;;;;;;;7.53;2.70;;;20.70;99.90;;;;;;5112397;28;20517;-56
2022/10/10 10:51:31;;;;;;;3.70;3.00;;;20.70;99.90;;;;;;5111494;28;20423;-56
2022/10/10 10:54:09;;;;;;;5.20;3.20;;;20.60;99.90;;;;;;5112078;28;20508;-56
2022/10/10 10:56:40;;;;;;;4.57;3.40;;;20.50;99.90;;;;;;5112242;28;20485;-57
2022/10/10 10:59:21;;;;;;;7.40;3.70;;;20.50;99.90;;;;;;5110833;28;20427;-56
2022/10/10 11:01:56;;;;;;;6.13;3.37;;;21.00;99.90;;;;;;5112365;28;20466;-56
2022/10/10 11:04:47;;;;;;;3.37;2.90;;;23.30;99.90;;;;;;5112546;28;20461;-57
2022/10/10 11:07:18;;;;;;;5.27;3.93;;;23.90;99.90;;;;;;5107538;28;20458;-57
2022/10/10 11:09:54;;;;;;;6.80;3.77;;;25.10;99.90;;;;;;5112422;28;20446;-57
2022/10/10 11:12:45;;;;;;;4.23;3.57;;;26.10;99.90;;;;;;5112427;28;20470;-56
2022/10/10 11:15:17;;;;;;;6.63;3.50;;;26.10;99.90;;;;;;5111772;28;20760;-56
2022/10/10 11:17:51;;;;;;;8.67;3.50;;;25.90;99.90;;;;;;5112255;28;20518;-57
2022/10/10 11:20:24;;;;;;;7.63;3.03;;;25.80;99.90;;;;;;5110599;28;20530;-57
2022/10/10 11:22:58;;;;;;;4.07;2.97;;;25.50;99.90;;;;;;5112262;28;20577;-57
2022/10/10 11:25:32;;;;;;;8.90;2.83;;;25.90;99.90;;;;;;5115923;28;20429;-57
2022/10/10 11:28:06;;;;;;;4.77;3.33;;;26.50;99.80;;;;;;5115229;28;20454;-58
2022/10/10 11:30:39;;;;;;;7.60;4.30;;;26.50;99.90;;;;;;5115672;28;20950;-57
2022/10/10 11:33:12;;;;;;;5.90;3.23;;;26.20;99.60;;;;;;5115537;28;20549;-57
2022/10/10 11:35:44;;;;;;;5.57;3.13;;;26.50;99.90;;;;;;5113842;28;20924;-56
2022/10/10 11:38:19;;;;;;;8.13;2.93;;;26.20;99.10;;;;;;5115372;28;20813;-57
2022/10/10 11:40:52;;;;;;;12.50;4.00;;;26.50;98.90;;;;;;5116006;28;20445;-57
2022/10/10 11:43:32;;;;;;;4.53;2.57;;;26.40;98.30;;;;;;5113729;28;20478;-57
2022/10/10 11:46:05;;;;;;;5.17;2.77;;;26.00;99.00;;;;;;5115495;28;20535;-57
2022/10/10 11:48:41;;;;;;;7.13;3.57;;;27.10;98.90;;;;;;5115443;28;20427;-57
2022/10/10 11:51:19;;;;;;;9.70;3.40;;;27.60;98.30;;;;;;5113979;28;20428;-57
2022/10/10 11:53:50;;;;;;;4.43;2.80;;;26.40;97.00;;;;;;5115745;28;20418;-56
2022/10/10 11:56:26;;;;;;;8.27;4.03;;;25.60;97.80;;;;;;5114972;28;20992;-57
2022/10/10 11:58:58;;;;;;;6.87;3.30;;;25.80;98.80;;;;;;5114249;28;20434;-57
2022/10/10 12:01:30;;;;;;;10.97;4.10;;;25.80;98.40;;;;;;5115227;28;20457;-57
2022/10/10 12:03:57;;;;;;;12.93;3.83;;;25.50;98.00;;;;;;5115384;28;20468;-57
2022/10/10 12:06:29;;;;;;;9.90;3.20;;;25.70;98.50;;;;;;5114102;28;20446;-57
2022/10/10 12:09:02;;;;;;;9.30;3.70;;;25.80;98.00;;;;;;5115401;28;20433;-57
2022/10/10 12:11:36;;;;;;;10.43;3.30;;;25.80;98.30;;;;;;5115112;28;20426;-57
2022/10/10 12:14:07;;;;;;;14.23;4.03;;;26.50;98.50;;;;;;5115269;28;20429;-57
2022/10/10 12:16:36;;;;;;;5.53;3.30;;;26.80;97.30;;;;;;5114834;28;20905;-57
2022/10/10 12:19:06;;;;;;;7.50;3.43;;;26.20;97.60;;;;;;5114108;28;20531;-56
2022/10/10 12:21:55;;;;;;;6.67;3.40;;;25.70;97.50;;;;;;5114829;28;20443;-56
2022/10/10 12:24:24;;;;;;;5.57;3.77;;;25.20;98.20;;;;;;5113496;28;21011;-56
2022/10/10 12:27:28;;;;;;;6.87;3.43;;;24.60;99.40;;;;;;5113612;28;20426;-57
2022/10/10 12:30:20;;;;;;;5.67;3.77;;;24.80;99.90;;;;;;5114770;28;20433;-57
2022/10/10 12:32:52;;;;;;;6.00;3.30;;;25.70;98.60;;;;;;5114585;28;20494;-57
2022/10/10 12:35:40;;;;;;;15.83;4.07;;;25.50;98.90;;;;;;5112924;28;20481;-57
2022/10/10 12:38:20;;;;;;;8.00;4.20;;;25.90;98.30;;;;;;5114283;28;20442;-57
2022/10/10 12:41:08;;;;;;;6.30;3.40;;;26.30;97.50;;;;;;5114887;28;20843;-57
2022/10/10 12:43:45;;;;;;;10.30;3.83;;;26.30;97.50;;;;;;5113546;28;20490;-57
2022/10/10 12:46:25;;;;;;;10.07;4.13;;;25.90;98.80;;;;;;5114481;28;20427;-57
2022/10/10 12:49:13;;;;;;;6.50;3.70;;;25.50;98.50;;;;;;5113527;28;20870;-57
2022/10/10 12:51:41;;;;;;;6.87;3.37;;;25.10;98.10;;;;;;5113781;28;20512;-57
2022/10/10 12:54:19;;;;;;;16.50;3.80;;;24.40;98.90;;;;;;5114289;28;20456;-57
2022/10/10 12:56:47;;;;;;;8.97;3.60;;;24.50;99.50;;;;;;5112778;28;20407;-56
2022/10/10 12:59:24;;;;;;;9.10;3.60;;;24.20;99.90;;;;;;5113548;28;20431;-57
2022/10/10 13:01:56;;;;;;;7.43;3.87;;;24.30;99.90;;;;;;5114418;28;20597;-56
2022/10/10 13:04:25;;;;;;;9.27;4.10;;;24.10;99.90;;;;;;5112094;28;20462;-56